Time;durP1;ratioP1;P1;durP2;ratioP2;P2;SDS_P1;SDS_P2;PMS_P1;PMS_P2;Temp;Humidity;BMP_temperature;BMP_pressure;BME280_temperature;BME280_humidity;BME280_pressure;Samples;Min_cycle;Max_cycle;Signal;HPM_P1;HPM_P2
2023/03/18 00:00:08;;;;;;;15.02;9.93;;;12.50;99.90;;;;;;6213371;23;20017;-80
2023/03/18 05:01:42;;;;;;;43.30;24.25;;;10.00;99.90;;;;;;6228642;22;20024;-78
2023/03/18 05:04:08;;;;;;;49.63;25.17;;;10.00;99.90;;;;;;6219885;23;20295;-78
2023/03/18 05:06:33;;;;;;;37.47;23.90;;;10.00;99.90;;;;;;6220421;23;20041;-78
2023/03/18 05:08:59;;;;;;;40.78;24.40;;;10.00;99.90;;;;;;6220070;23;20083;-79
2023/03/18 05:11:26;;;;;;;40.42;24.88;;;10.00;99.90;;;;;;6247214;23;20004;-79
2023/03/18 05:13:52;;;;;;;45.53;26.73;;;10.00;99.90;;;;;;6246870;23;20048;-77
2023/03/18 05:16:18;;;;;;;40.25;24.05;;;9.90;99.90;;;;;;6220054;23;20057;-78
2023/03/18 05:18:44;;;;;;;41.85;24.35;;;10.00;99.90;;;;;;6220034;23;20020;-79
2023/03/18 05:21:10;;;;;;;40.75;24.88;;;9.90;99.90;;;;;;6219926;23;20023;-78
2023/03/18 05:23:37;;;;;;;39.55;24.45;;;9.90;99.90;;;;;;6219949;23;20082;-77
2023/03/18 05:26:05;;;;;;;43.88;24.75;;;9.90;99.90;;;;;;6247371;23;20083;-79
2023/03/18 05:28:32;;;;;;;42.55;24.45;;;9.90;99.90;;;;;;6220360;23;20023;-78
2023/03/18 05:30:58;;;;;;;41.60;23.80;;;9.90;99.90;;;;;;6246999;23;20016;-78
2023/03/18 05:33:24;;;;;;;48.92;25.02;;;9.90;99.90;;;;;;6220650;23;20012;-79
2023/03/18 05:35:50;;;;;;;45.35;26.48;;;10.00;99.90;;;;;;6220402;23;20333;-78
2023/03/18 05:38:17;;;;;;;46.08;25.02;;;10.00;99.90;;;;;;6219954;23;20090;-79
2023/03/18 05:40:43;;;;;;;40.22;25.13;;;10.00;99.90;;;;;;6220158;23;20012;-78
2023/03/18 05:43:10;;;;;;;44.47;25.50;;;10.00;99.90;;;;;;6220157;23;20038;-77
2023/03/18 05:45:36;;;;;;;42.88;23.85;;;10.00;99.90;;;;;;6247216;23;20016;-78
2023/03/18 05:48:03;;;;;;;42.65;25.85;;;10.00;99.90;;;;;;6247087;23;20053;-76
2023/03/18 05:50:36;;;;;;;44.47;26.15;;;10.00;99.90;;;;;;6246969;23;20008;-77
2023/03/18 05:53:04;;;;;;;46.70;25.20;;;10.00;99.90;;;;;;6219589;23;20047;-77
2023/03/18 05:55:30;;;;;;;43.35;22.20;;;10.00;99.90;;;;;;6219923;23;20020;-77
2023/03/18 05:57:57;;;;;;;47.53;26.80;;;10.10;99.90;;;;;;6219556;23;20016;-78
2023/03/18 06:00:24;;;;;;;42.33;24.75;;;10.10;99.90;;;;;;6246065;23;20008;-79
2023/03/18 06:02:51;;;;;;;43.30;25.77;;;10.00;99.90;;;;;;6218252;23;20016;-78
2023/03/18 06:05:17;;;;;;;44.67;26.08;;;10.00;99.90;;;;;;6192248;23;20350;-79
2023/03/18 06:07:44;;;;;;;44.92;27.35;;;10.10;99.90;;;;;;6244953;23;20058;-78
2023/03/18 06:10:11;;;;;;;46.53;27.25;;;10.00;99.90;;;;;;6245407;23;20101;-78
2023/03/18 06:12:37;;;;;;;48.05;28.67;;;10.00;99.90;;;;;;6245385;23;20664;-78
2023/03/18 06:15:08;;;;;;;51.47;29.05;;;10.00;99.90;;;;;;6193524;23;20030;-78
2023/03/18 06:17:33;;;;;;;45.60;28.33;;;10.00;99.90;;;;;;6218939;23;20012;-78
2023/03/18 06:19:59;;;;;;;43.08;27.85;;;10.00;99.90;;;;;;6246345;23;20058;-76
2023/03/18 06:22:25;;;;;;;46.17;27.73;;;10.00;99.90;;;;;;6219168;23;20020;-79
2023/03/18 06:24:52;;;;;;;45.33;28.13;;;10.00;99.90;;;;;;6246439;23;20008;-77
2023/03/18 06:27:18;;;;;;;47.10;28.83;;;10.00;99.90;;;;;;6219489;23;20012;-79
2023/03/18 06:29:44;;;;;;;45.55;29.45;;;10.00;99.90;;;;;;6247210;23;20015;-78
2023/03/18 06:32:10;;;;;;;47.97;28.73;;;10.00;99.90;;;;;;6219267;23;20016;-79
2023/03/18 06:34:35;;;;;;;74.72;31.08;;;10.10;99.90;;;;;;6246627;23;20089;-79
2023/03/18 06:37:02;;;;;;;45.70;27.38;;;10.10;99.90;;;;;;6219634;23;20323;-78
2023/03/18 06:39:28;;;;;;;44.72;28.67;;;10.10;99.90;;;;;;6220541;23;20008;-78
2023/03/18 06:41:54;;;;;;;45.53;28.88;;;10.20;99.90;;;;;;6246379;23;20134;-78
2023/03/18 06:44:24;;;;;;;52.20;29.27;;;10.20;99.90;;;;;;6219314;23;20012;-78
2023/03/18 06:46:49;;;;;;;43.20;27.85;;;10.20;99.90;;;;;;6220362;23;20023;-78
2023/03/18 06:49:16;;;;;;;44.88;27.15;;;10.30;99.90;;;;;;6246966;23;20008;-77
2023/03/18 06:51:42;;;;;;;52.40;29.23;;;10.30;99.90;;;;;;6246195;23;20063;-79
2023/03/18 06:54:08;;;;;;;42.22;27.17;;;10.30;99.90;;;;;;6219445;23;20042;-79
2023/03/18 06:56:40;;;;;;;43.90;26.70;;;10.30;99.90;;;;;;6219884;23;20018;-78
2023/03/18 06:59:08;;;;;;;41.95;27.45;;;10.30;99.90;;;;;;6246440;23;20016;-78
2023/03/18 07:01:34;;;;;;;43.45;25.23;;;10.30;99.90;;;;;;6245884;23;20016;-78
2023/03/18 07:04:01;;;;;;;41.45;25.48;;;10.40;99.90;;;;;;6219064;23;20109;-78
2023/03/18 07:06:28;;;;;;;39.80;23.95;;;10.30;99.90;;;;;;6245988;23;20008;-78
2023/03/18 07:08:55;;;;;;;40.72;25.45;;;10.40;99.90;;;;;;6246380;23;20047;-78
2023/03/18 07:11:20;;;;;;;42.80;25.80;;;10.40;99.90;;;;;;6219528;23;20307;-78
2023/03/18 07:13:47;;;;;;;40.35;25.35;;;10.40;99.90;;;;;;6246371;23;20011;-77
2023/03/18 07:16:12;;;;;;;38.22;24.50;;;10.40;99.90;;;;;;6194054;23;20370;-79
2023/03/18 07:18:39;;;;;;;38.22;24.88;;;10.50;99.90;;;;;;6218753;23;20016;-79
2023/03/18 07:21:05;;;;;;;37.17;22.65;;;10.50;99.90;;;;;;6218905;23;20337;-78
2023/03/18 07:23:31;;;;;;;39.70;24.15;;;10.50;99.90;;;;;;6218953;23;20059;-78
2023/03/18 07:25:57;;;;;;;40.53;24.55;;;10.60;99.90;;;;;;6219631;23;20021;-77
2023/03/18 07:28:23;;;;;;;39.22;25.45;;;10.60;99.90;;;;;;6246322;23;20019;-79
2023/03/18 07:30:50;;;;;;;43.28;24.83;;;10.60;99.90;;;;;;6218861;23;20008;-78
2023/03/18 07:33:15;;;;;;;42.00;25.77;;;10.60;99.90;;;;;;6246117;23;20020;-78
2023/03/18 07:35:41;;;;;;;44.35;24.77;;;10.50;99.90;;;;;;6245811;23;20004;-80
2023/03/18 07:38:08;;;;;;;42.33;26.15;;;10.60;99.90;;;;;;6218645;23;20347;-77
2023/03/18 07:40:35;;;;;;;41.88;28.30;;;10.60;99.90;;;;;;6219344;23;20004;-78
2023/03/18 07:43:01;;;;;;;43.05;28.00;;;10.50;99.90;;;;;;6218530;23;20437;-78
2023/03/18 07:45:28;;;;;;;47.05;28.02;;;10.50;99.90;;;;;;6218791;23;20014;-78
2023/03/18 07:47:53;;;;;;;49.00;29.98;;;10.50;99.90;;;;;;6246017;23;20019;-78
2023/03/18 07:50:19;;;;;;;47.92;29.20;;;10.40;99.90;;;;;;6218597;23;20012;-78
2023/03/18 07:52:45;;;;;;;45.95;28.30;;;10.40;99.90;;;;;;6218530;23;20390;-78
2023/03/18 07:55:11;;;;;;;49.13;30.25;;;10.40;99.90;;;;;;6245346;23;20020;-77
2023/03/18 07:57:38;;;;;;;45.75;30.17;;;10.40;99.90;;;;;;6219131;23;20028;-78
2023/03/18 08:00:05;;;;;;;48.17;30.52;;;10.40;99.90;;;;;;6245717;23;20016;-77
2023/03/18 08:02:32;;;;;;;45.88;29.75;;;10.40;99.90;;;;;;6244907;23;20014;-77
2023/03/18 08:04:58;;;;;;;51.13;31.45;;;10.40;99.90;;;;;;6218494;23;20497;-79
2023/03/18 08:07:24;;;;;;;54.60;33.53;;;10.40;99.90;;;;;;6218605;23;20090;-77
2023/03/18 08:09:49;;;;;;;55.80;33.40;;;10.50;99.90;;;;;;6245550;23;20008;-77
2023/03/18 08:12:16;;;;;;;57.50;34.70;;;10.50;99.90;;;;;;6218408;23;20031;-77
2023/03/18 08:14:42;;;;;;;55.38;34.65;;;10.50;99.90;;;;;;6245744;23;20014;-77
2023/03/18 08:17:08;;;;;;;50.75;31.63;;;10.50;99.90;;;;;;6245927;23;20016;-79
2023/03/18 08:19:34;;;;;;;52.53;31.30;;;10.60;99.90;;;;;;6245697;23;20008;-77
2023/03/18 08:22:00;;;;;;;55.70;33.33;;;10.60;99.90;;;;;;6245135;23;20336;-78
2023/03/18 08:24:26;;;;;;;55.53;34.53;;;10.60;99.90;;;;;;6245626;23;20090;-77
2023/03/18 08:26:52;;;;;;;58.50;36.53;;;10.60;99.90;;;;;;6245563;23;20018;-76
2023/03/18 08:29:18;;;;;;;56.15;36.30;;;10.60;99.90;;;;;;6218412;23;20087;-77
2023/03/18 08:31:44;;;;;;;57.22;35.20;;;10.60;99.90;;;;;;6219833;23;20035;-79
2023/03/18 08:34:09;;;;;;;57.13;35.08;;;10.70;99.90;;;;;;6247253;23;20026;-77
2023/03/18 08:36:35;;;;;;;53.45;35.55;;;10.70;99.90;;;;;;6248367;23;20078;-78
2023/03/18 08:39:03;;;;;;;60.28;38.15;;;10.70;99.90;;;;;;6220617;23;20057;-76
2023/03/18 08:41:28;;;;;;;57.95;34.22;;;10.80;99.90;;;;;;6221443;23;20452;-78
2023/03/18 08:43:56;;;;;;;56.88;37.40;;;10.80;99.90;;;;;;6220567;23;20009;-78
2023/03/18 08:46:22;;;;;;;59.72;36.55;;;10.90;99.90;;;;;;6220557;23;20008;-78
2023/03/18 08:48:48;;;;;;;58.30;36.60;;;11.00;99.90;;;;;;6247782;23;20016;-79
2023/03/18 08:51:15;;;;;;;58.72;36.50;;;11.00;99.90;;;;;;6247632;23;20008;-77
2023/03/18 08:53:41;;;;;;;54.40;35.00;;;11.20;99.90;;;;;;6220388;23;20097;-77
2023/03/18 08:56:07;;;;;;;57.92;36.17;;;11.40;99.90;;;;;;6220533;23;20016;-78
2023/03/18 08:58:34;;;;;;;54.60;34.90;;;11.60;99.90;;;;;;6247191;23;20062;-78
2023/03/18 09:01:02;;;;;;;51.60;34.72;;;11.90;99.90;;;;;;6194862;23;20410;-76
2023/03/18 09:03:29;;;;;;;55.00;35.67;;;12.30;99.90;;;;;;6219983;23;20019;-76
2023/03/18 09:05:54;;;;;;;57.00;34.53;;;12.70;99.90;;;;;;6220481;23;20092;-76
2023/03/18 09:08:21;;;;;;;53.13;34.17;;;13.00;99.90;;;;;;6247438;23;20012;-77
2023/03/18 09:10:49;;;;;;;53.22;35.03;;;13.20;99.90;;;;;;6220125;23;20046;-81
2023/03/18 09:13:15;;;;;;;52.15;33.00;;;13.20;99.90;;;;;;6220204;23;20087;-79
2023/03/18 09:15:41;;;;;;;59.15;34.40;;;13.00;99.90;;;;;;6246992;23;20035;-79
2023/03/18 09:18:07;;;;;;;59.20;36.53;;;12.90;99.90;;;;;;6220575;23;20083;-79
2023/03/18 09:20:33;;;;;;;66.22;36.88;;;12.90;99.90;;;;;;6247117;23;20046;-78
2023/03/18 09:22:59;;;;;;;64.63;40.30;;;12.90;99.90;;;;;;6220314;23;20078;-81
2023/03/18 09:25:25;;;;;;;64.13;36.97;;;13.00;99.90;;;;;;6247112;23;20437;-78
2023/03/18 09:27:52;;;;;;;56.63;36.10;;;13.00;99.90;;;;;;6247013;23;20031;-79
2023/03/18 09:30:18;;;;;;;58.15;33.05;;;13.00;99.90;;;;;;6219913;23;20016;-80
2023/03/18 09:32:44;;;;;;;50.90;33.03;;;12.90;99.90;;;;;;6246877;23;20442;-78
2023/03/18 09:35:11;;;;;;;53.33;29.95;;;12.90;99.90;;;;;;6219730;23;20323;-78
2023/03/18 09:37:40;;;;;;;53.10;31.67;;;12.90;99.90;;;;;;6246215;23;20483;-78
2023/03/18 09:40:09;;;;;;;48.53;31.05;;;12.80;99.90;;;;;;6219459;23;20054;-78
2023/03/18 09:43:04;;;;;;;48.65;32.80;;;12.80;99.90;;;;;;6194175;23;20020;-78
2023/03/18 09:45:34;;;;;;;49.47;30.85;;;12.80;99.90;;;;;;6195129;23;20019;-78
2023/03/18 09:48:36;;;;;;;50.42;33.25;;;12.90;99.90;;;;;;6218968;23;20012;-78
2023/03/18 09:51:32;;;;;;;54.10;32.97;;;12.90;99.90;;;;;;6193889;23;20066;-78
2023/03/18 09:54:07;;;;;;;51.97;31.83;;;13.10;99.90;;;;;;6220056;23;20023;-77
2023/03/18 09:56:47;;;;;;;;;;;;;;;;;;;;;
2023/03/18 09:59:22;;;;;;;51.63;30.40;;;13.30;99.90;;;;;;6219571;23;20020;-78
2023/03/18 10:01:53;;;;;;;48.00;29.17;;;13.40;99.90;;;;;;6194521;23;20334;-78
2023/03/18 10:04:27;;;;;;;49.15;29.67;;;13.40;99.90;;;;;;6194180;23;20027;-78
2023/03/18 10:07:05;;;;;;;41.08;26.77;;;13.40;99.90;;;;;;6195012;23;20286;-77
2023/03/18 10:09:53;;;;;;;38.05;25.63;;;13.30;99.90;;;;;;6194986;23;20054;-79
2023/03/18 10:12:38;;;;;;;38.83;25.25;;;13.50;99.90;;;;;;6194688;23;20034;-80
2023/03/18 10:15:41;;;;;;;;;;;;;;;;;;;;;
2023/03/18 10:18:33;;;;;;;33.35;22.05;;;13.90;99.90;;;;;;6226827;23;20016;-77
2023/03/18 10:21:10;;;;;;;36.10;21.05;;;14.10;99.90;;;;;;6220352;23;20042;-78
2023/03/18 10:23:51;;;;;;;28.67;19.85;;;14.40;99.90;;;;;;6195027;23;20048;-77
2023/03/18 10:26:21;;;;;;;30.75;19.88;;;14.60;99.90;;;;;;6194553;23;20291;-80
2023/03/18 10:29:10;;;;;;;;;;;;;;;;;;;;;
2023/03/18 10:32:04;;;;;;;25.67;17.27;;;14.90;99.90;;;;;;6218698;23;20027;-78
2023/03/18 10:34:56;;;;;;;22.65;16.30;;;15.00;99.90;;;;;;6194310;23;20043;-79
2023/03/18 10:37:32;;;;;;;20.58;13.77;;;14.90;99.90;;;;;;6219704;23;20043;-78
2023/03/18 10:39:58;;;;;;;19.17;13.05;;;15.00;99.90;;;;;;6244870;23;20012;-78
2023/03/18 10:42:29;;;;;;;20.05;14.52;;;15.20;99.90;;;;;;6194074;23;20384;-80
2023/03/18 10:45:22;;;;;;;19.70;13.98;;;15.20;99.90;;;;;;6194484;23;20012;-79
2023/03/18 10:48:38;;;;;;;24.20;15.15;;;15.20;99.90;;;;;;6219012;23;20290;-79
2023/03/18 10:51:23;;;;;;;28.65;17.70;;;14.80;99.90;;;;;;6150164;23;20009;-78
2023/03/18 10:54:16;;;;;;;24.77;15.87;;;14.60;99.90;;;;;;6245814;23;20387;-77
2023/03/18 10:56:42;;;;;;;24.10;15.32;;;14.40;99.90;;;;;;6219261;23;20700;-77
2023/03/18 10:59:17;;;;;;;22.20;15.63;;;14.30;99.90;;;;;;6194525;23;20016;-77
2023/03/18 11:02:24;;;;;;;25.83;15.63;;;14.60;99.90;;;;;;6194031;23;20330;-79
2023/03/18 11:04:58;;;;;;;17.83;13.48;;;15.00;99.90;;;;;;6075612;23;20052;-79
2023/03/18 11:07:25;;;;;;;17.35;11.93;;;15.20;99.90;;;;;;6219055;23;20008;-78
2023/03/18 11:09:52;;;;;;;16.60;12.10;;;15.40;99.90;;;;;;6218988;23;20016;-77
2023/03/18 11:12:41;;;;;;;;;;;;;;;;;;;;;
2023/03/18 11:16:05;;;;;;;;;;;;;;;;;;;;;
2023/03/18 11:19:51;;;;;;;;;;;;;;;;;;;;;
2023/03/18 11:22:59;;;;;;;15.55;11.70;;;15.60;99.90;;;;;;6110395;23;20017;-79
2023/03/18 11:25:42;;;;;;;15.38;11.38;;;15.60;99.90;;;;;;6149365;23;20370;-77
2023/03/18 11:28:55;;;;;;;;;;;;;;;;;;;;;
2023/03/18 11:31:56;;;;;;;;;;;;;;;;;;;;;
2023/03/18 11:34:32;;;;;;;14.63;10.88;;;16.10;99.90;;;;;;6157975;23;20017;-79
2023/03/18 11:37:07;;;;;;;13.05;10.00;;;16.30;99.90;;;;;;6134631;23;20028;-77
2023/03/18 11:39:38;;;;;;;12.65;8.90;;;16.40;99.90;;;;;;6159294;23;20017;-83
2023/03/18 11:42:17;;;;;;;10.75;8.73;;;16.20;99.90;;;;;;6183590;23;20009;-77
2023/03/18 11:44:43;;;;;;;11.23;8.60;;;15.90;99.90;;;;;;6169916;23;20012;-77
2023/03/18 11:47:20;;;;;;;13.27;8.77;;;15.90;99.90;;;;;;6218541;23;20024;-77
2023/03/18 11:49:46;;;;;;;11.98;8.25;;;16.10;99.90;;;;;;6218382;23;20039;-77
2023/03/18 11:52:15;;;;;;;12.43;8.30;;;16.20;99.90;;;;;;6218247;23;20012;-78
2023/03/18 11:54:44;;;;;;;12.07;8.80;;;16.30;99.90;;;;;;6218497;23;20119;-76
2023/03/18 11:57:20;;;;;;;11.95;8.32;;;16.50;99.90;;;;;;6239283;23;20020;-77
2023/03/18 12:00:00;;;;;;;12.77;8.50;;;16.70;99.90;;;;;;6219504;23;20042;-78
2023/03/18 12:02:52;;;;;;;13.32;8.65;;;16.80;99.90;;;;;;6246188;23;20066;-77
2023/03/18 12:05:31;;;;;;;11.00;8.05;;;16.80;99.90;;;;;;6192695;23;20015;-78
2023/03/18 12:08:18;;;;;;;10.32;7.60;;;17.10;99.90;;;;;;6249523;23;20296;-79
2023/03/18 12:10:55;;;;;;;12.02;7.50;;;17.30;99.90;;;;;;6250015;22;20004;-78
2023/03/18 12:13:36;;;;;;;11.50;7.63;;;17.50;99.90;;;;;;6248715;23;20025;-78
2023/03/18 12:16:19;;;;;;;10.07;7.70;;;17.40;99.90;;;;;;6250194;23;20016;-77
2023/03/18 12:18:57;;;;;;;10.90;7.43;;;17.20;99.90;;;;;;6248700;23;20432;-77
2023/03/18 12:21:47;;;;;;;9.25;6.72;;;17.00;99.90;;;;;;6222174;23;20390;-78
2023/03/18 12:24:48;;;;;;;9.85;6.57;;;16.70;99.90;;;;;;6249487;22;20516;-77
2023/03/18 12:27:26;;;;;;;9.95;6.60;;;16.50;99.90;;;;;;6196899;22;20363;-78
2023/03/18 12:30:13;;;;;;;12.60;6.60;;;16.40;99.90;;;;;;6249786;22;20008;-81
2023/03/18 12:32:49;;;;;;;9.00;7.15;;;16.60;99.90;;;;;;6249141;22;20100;-82
2023/03/18 12:35:38;;;;;;;16.00;8.73;;;16.80;99.90;;;;;;6222219;23;20046;-77
2023/03/18 12:38:46;;;;;;;17.35;10.63;;;16.80;99.90;;;;;;6248861;23;20016;-81
2023/03/18 12:41:24;;;;;;;12.35;7.40;;;17.10;99.90;;;;;;6190857;23;20016;-81
2023/03/18 12:43:56;;;;;;;12.48;8.43;;;17.30;99.90;;;;;;6249538;23;20019;-83
2023/03/18 12:46:32;;;;;;;9.52;6.35;;;17.50;99.90;;;;;;6249164;23;20012;-78
2023/03/18 12:49:16;;;;;;;7.53;5.53;;;17.50;99.90;;;;;;6246902;23;20083;-82
2023/03/18 12:52:07;;;;;;;9.68;5.00;;;17.30;99.90;;;;;;6249423;23;20044;-80
2023/03/18 12:54:39;;;;;;;10.00;5.95;;;17.40;99.90;;;;;;6247460;23;20012;-77
2023/03/18 12:57:38;;;;;;;11.63;5.97;;;17.50;99.90;;;;;;6249932;22;20008;-81
2023/03/18 13:00:22;;;;;;;11.52;6.10;;;17.40;99.90;;;;;;6241639;23;20008;-78
2023/03/18 13:03:02;;;;;;;10.88;6.50;;;17.20;99.90;;;;;;6248699;23;20103;-79
2023/03/18 13:05:51;;;;;;;11.23;7.30;;;17.20;99.90;;;;;;6249422;23;20337;-78
2023/03/18 13:08:39;;;;;;;10.95;7.07;;;17.00;99.90;;;;;;6247606;23;20048;-79
2023/03/18 13:11:49;;;;;;;14.25;8.55;;;16.90;99.90;;;;;;6247256;23;20442;-81
2023/03/18 13:14:55;;;;;;;11.98;8.45;;;16.90;99.90;;;;;;6213002;23;20468;-83
2023/03/18 13:17:32;;;;;;;12.45;8.25;;;17.00;99.90;;;;;;6247321;23;20019;-79
2023/03/18 13:20:23;;;;;;;10.60;7.43;;;17.50;99.90;;;;;;6247365;22;20008;-77
2023/03/18 13:23:14;;;;;;;10.10;6.68;;;17.80;99.90;;;;;;6245024;23;20095;-82
2023/03/18 13:25:53;;;;;;;11.73;7.55;;;18.10;99.90;;;;;;6247786;22;20337;-80
2023/03/18 13:28:43;;;;;;;13.40;6.45;;;18.40;99.90;;;;;;6247894;22;20012;-81
2023/03/18 13:31:27;;;;;;;11.38;5.80;;;18.00;99.90;;;;;;6242346;23;20012;-82
2023/03/18 13:34:04;;;;;;;8.45;5.55;;;17.60;99.90;;;;;;6246553;23;20047;-79
2023/03/18 13:37:00;;;;;;;11.48;6.65;;;17.30;99.90;;;;;;6245941;23;20030;-81
2023/03/18 13:40:02;;;;;;;10.43;5.10;;;17.10;99.90;;;;;;6245622;23;20394;-76
2023/03/18 13:42:32;;;;;;;9.10;5.32;;;17.00;99.90;;;;;;6246921;22;20516;-83
2023/03/18 13:45:30;;;;;;;10.68;6.60;;;17.20;99.90;;;;;;6245233;23;20052;-83
2023/03/18 13:48:00;;;;;;;9.30;6.40;;;17.10;99.90;;;;;;6245052;23;20346;-83
2023/03/18 13:50:34;;;;;;;12.18;7.35;;;17.10;99.90;;;;;;6245643;23;20012;-83
2023/03/18 13:53:01;;;;;;;10.13;7.40;;;17.10;99.90;;;;;;6247716;23;20337;-82
2023/03/18 13:55:33;;;;;;;14.20;8.07;;;17.10;99.90;;;;;;6245906;23;20019;-81
2023/03/18 13:58:10;;;;;;;13.57;8.02;;;17.10;99.90;;;;;;6245706;23;20019;-81
2023/03/18 14:00:41;;;;;;;14.15;9.05;;;17.00;99.90;;;;;;6247165;23;20034;-82
2023/03/18 14:03:20;;;;;;;12.90;8.57;;;16.90;99.90;;;;;;6245124;23;20043;-79
2023/03/18 14:05:53;;;;;;;14.13;8.95;;;16.80;99.90;;;;;;6219831;23;20008;-82
2023/03/18 14:08:37;;;;;;;12.63;9.10;;;16.70;99.90;;;;;;6245417;23;20008;-83
2023/03/18 14:11:27;;;;;;;12.55;8.05;;;16.60;99.90;;;;;;6244852;23;20016;-83
2023/03/18 14:14:02;;;;;;;11.30;7.93;;;16.60;99.90;;;;;;6247243;23;20028;-82
2023/03/18 14:16:47;;;;;;;12.50;8.13;;;16.50;99.90;;;;;;6246872;22;20101;-81
2023/03/18 14:19:31;;;;;;;14.90;9.15;;;16.60;99.90;;;;;;6246908;23;20373;-82
2023/03/18 14:22:22;;;;;;;12.77;8.82;;;16.60;99.90;;;;;;6245029;23;20074;-83
2023/03/18 14:25:16;;;;;;;15.55;8.82;;;16.60;99.90;;;;;;6247294;22;20422;-82
2023/03/18 14:28:05;;;;;;;16.75;9.93;;;16.60;99.90;;;;;;6244904;23;20306;-82
2023/03/18 14:30:32;;;;;;;14.32;9.60;;;16.60;99.90;;;;;;6236398;23;20050;-83
2023/03/18 14:33:02;;;;;;;13.98;9.30;;;16.60;99.90;;;;;;6244922;23;20023;-82
2023/03/18 14:35:34;;;;;;;14.68;9.60;;;16.50;99.90;;;;;;6247609;22;20035;-83
2023/03/18 14:38:17;;;;;;;14.32;9.57;;;16.40;99.90;;;;;;6243530;23;20020;-81
2023/03/18 14:40:50;;;;;;;12.35;8.75;;;16.40;99.90;;;;;;6246035;22;20008;-82
2023/03/18 14:43:51;;;;;;;12.18;7.60;;;16.30;99.90;;;;;;6247545;23;20020;-82
2023/03/18 14:46:20;;;;;;;12.70;7.20;;;16.20;99.90;;;;;;6234010;23;20039;-82
2023/03/18 14:48:52;;;;;;;12.32;7.05;;;16.20;99.90;;;;;;6245131;23;20012;-84
2023/03/18 14:51:20;;;;;;;10.63;6.90;;;16.10;99.90;;;;;;6244922;23;20016;-83
2023/03/18 14:54:06;;;;;;;10.15;7.00;;;16.00;99.90;;;;;;6246504;22;20016;-82
2023/03/18 14:56:39;;;;;;;10.20;7.05;;;15.90;99.90;;;;;;6246591;22;20070;-82
2023/03/18 14:59:06;;;;;;;10.23;7.95;;;15.90;99.90;;;;;;6219477;23;20022;-82
2023/03/18 15:01:37;;;;;;;12.50;8.05;;;15.80;99.90;;;;;;6245066;23;20016;-83
2023/03/18 15:04:06;;;;;;;11.10;7.40;;;15.80;99.90;;;;;;6246033;22;20084;-83
2023/03/18 15:06:32;;;;;;;12.13;7.18;;;15.80;99.90;;;;;;6245375;23;20201;-83
2023/03/18 15:09:14;;;;;;;11.75;7.78;;;15.80;99.90;;;;;;6245031;23;20019;-82
2023/03/18 15:11:45;;;;;;;11.55;7.32;;;15.70;99.90;;;;;;6246647;22;20018;-82
2023/03/18 15:14:23;;;;;;;10.07;7.30;;;15.70;99.90;;;;;;6244798;23;20019;-83
2023/03/18 15:16:53;;;;;;;11.50;7.40;;;15.70;99.90;;;;;;6246610;22;20016;-82
2023/03/18 15:19:20;;;;;;;10.20;7.10;;;15.70;99.90;;;;;;6244511;23;20095;-79
2023/03/18 15:21:46;;;;;;;12.43;7.50;;;15.80;99.90;;;;;;6244556;23;20047;-82
2023/03/18 15:24:21;;;;;;;13.30;7.38;;;15.80;99.90;;;;;;6244668;23;20457;-83
2023/03/18 15:26:56;;;;;;;11.05;7.35;;;15.80;99.90;;;;;;6219524;23;20016;-80
2023/03/18 15:29:25;;;;;;;11.52;7.70;;;15.90;99.90;;;;;;6245228;23;20014;-81
2023/03/18 15:31:51;;;;;;;12.23;7.88;;;15.90;99.90;;;;;;6244362;23;20012;-82
2023/03/18 15:34:29;;;;;;;11.27;8.07;;;16.00;99.90;;;;;;6243861;23;20012;-85
2023/03/18 15:37:00;;;;;;;12.27;7.80;;;16.10;99.90;;;;;;6244362;23;20016;-79
2023/03/18 15:39:26;;;;;;;11.48;7.82;;;16.20;99.90;;;;;;6244560;23;20106;-80
2023/03/18 15:41:56;;;;;;;11.63;8.15;;;16.10;99.90;;;;;;6244555;23;20091;-81
2023/03/18 15:44:30;;;;;;;11.80;8.15;;;16.10;99.90;;;;;;6245215;23;20445;-81
2023/03/18 15:47:30;;;;;;;10.18;7.93;;;16.10;99.90;;;;;;6245128;23;20008;-79
2023/03/18 15:50:08;;;;;;;10.57;7.82;;;16.20;99.90;;;;;;6245408;22;20012;-76
2023/03/18 15:52:41;;;;;;;11.50;7.53;;;16.30;99.90;;;;;;6245739;22;20016;-78
2023/03/18 15:55:28;;;;;;;12.23;7.72;;;16.60;99.90;;;;;;6244172;23;20083;-78
2023/03/18 15:57:54;;;;;;;10.32;7.10;;;17.20;99.90;;;;;;6243824;23;20011;-77
2023/03/18 16:00:20;;;;;;;10.38;6.93;;;18.00;99.90;;;;;;6218587;23;20024;-76
2023/03/18 16:02:46;;;;;;;12.60;6.78;;;18.60;99.90;;;;;;6245143;22;20012;-78
2023/03/18 16:05:21;;;;;;;12.02;6.45;;;19.00;99.90;;;;;;6243909;23;20019;-78
2023/03/18 16:07:47;;;;;;;;;;;19.30;99.90;;;;;;6246126;22;20334;-81
2023/03/18 16:10:19;;;;;;;9.40;4.43;;;19.40;99.90;;;;;;6244288;23;19912;-79
2023/03/18 16:12:54;;;;;;;7.60;4.47;;;19.30;99.90;;;;;;6246018;23;20468;-81
2023/03/18 16:15:21;;;;;;;5.72;3.72;;;19.00;99.90;;;;;;6247607;23;20016;-80
2023/03/18 16:17:48;;;;;;;4.72;2.50;;;18.80;99.90;;;;;;6250467;23;20068;-80
2023/03/18 16:20:21;;;;;;;5.40;2.67;;;18.60;99.90;;;;;;6265139;23;20016;-80
2023/03/18 16:22:48;;;;;;;4.85;2.60;;;18.50;99.90;;;;;;6265426;23;20000;-84
2023/03/18 16:25:14;;;;;;;7.30;2.72;;;18.40;99.90;;;;;;6221541;23;20377;-82
2023/03/18 16:27:43;;;;;;;4.82;2.28;;;18.10;99.90;;;;;;6246534;23;20349;-86
2023/03/18 16:30:25;;;;;;;4.80;2.35;;;17.70;99.90;;;;;;6222501;23;20012;-85
2023/03/18 16:32:52;;;;;;;4.72;2.42;;;17.30;99.90;;;;;;6246232;23;20016;-85
2023/03/18 16:35:39;;;;;;;5.07;2.80;;;17.00;99.90;;;;;;6246121;23;20096;-85
2023/03/18 16:38:09;;;;;;;5.10;2.53;;;16.70;99.90;;;;;;6247381;22;20405;-82
2023/03/18 16:40:36;;;;;;;5.15;2.40;;;16.50;99.90;;;;;;6245142;23;20023;-81
2023/03/18 16:43:01;;;;;;;5.63;2.63;;;16.30;99.90;;;;;;6243290;23;20008;-81
2023/03/18 16:45:29;;;;;;;4.88;2.55;;;16.00;99.90;;;;;;6218139;23;20039;-80
2023/03/18 16:48:02;;;;;;;6.20;3.20;;;15.90;99.90;;;;;;6245738;23;20317;-82
2023/03/18 16:50:36;;;;;;;7.53;3.08;;;15.80;99.90;;;;;;6243817;23;20016;-79
2023/03/18 16:53:10;;;;;;;5.55;2.70;;;15.60;99.90;;;;;;6247121;23;20341;-80
2023/03/18 16:55:35;;;;;;;6.60;2.85;;;15.50;99.90;;;;;;6245475;23;20040;-82
2023/03/18 16:58:01;;;;;;;4.85;2.53;;;15.30;99.90;;;;;;6245627;23;20070;-76
2023/03/18 17:00:30;;;;;;;6.90;3.03;;;15.20;99.90;;;;;;6245733;23;20378;-78
2023/03/18 17:02:57;;;;;;;5.13;2.85;;;15.10;99.90;;;;;;6247601;22;20016;-81
2023/03/18 17:05:23;;;;;;;6.13;2.88;;;15.00;99.90;;;;;;6247328;22;20073;-77
2023/03/18 17:07:49;;;;;;;4.75;2.60;;;14.90;99.90;;;;;;6245644;23;20468;-80
2023/03/18 17:10:21;;;;;;;5.95;2.80;;;14.80;99.90;;;;;;6246482;23;20083;-80
2023/03/18 17:12:56;;;;;;;6.68;3.10;;;14.80;99.90;;;;;;6245242;23;20012;-79
2023/03/18 17:15:28;;;;;;;5.65;2.80;;;14.70;99.90;;;;;;6247125;22;20016;-84
2023/03/18 17:17:57;;;;;;;7.53;2.67;;;14.60;99.90;;;;;;6246455;23;20016;-78
2023/03/18 17:20:24;;;;;;;5.47;2.60;;;14.50;99.90;;;;;;6247357;23;20004;-76
2023/03/18 17:22:50;;;;;;;5.68;2.55;;;14.50;99.90;;;;;;6247163;22;20023;-78
2023/03/18 17:25:16;;;;;;;6.53;2.67;;;14.40;99.90;;;;;;6245466;23;20342;-79
2023/03/18 17:27:48;;;;;;;6.30;2.83;;;14.30;99.90;;;;;;6245141;23;20076;-78
2023/03/18 17:30:16;;;;;;;6.07;2.70;;;14.20;99.90;;;;;;6247333;22;20087;-78
2023/03/18 17:32:44;;;;;;;4.03;1.80;;;14.10;99.90;;;;;;6247419;23;20066;-78
2023/03/18 17:35:19;;;;;;;6.03;2.08;;;14.10;99.90;;;;;;6245480;23;20047;-77
2023/03/18 17:37:46;;;;;;;5.05;2.30;;;14.00;99.90;;;;;;6246910;22;20012;-76
2023/03/18 17:40:14;;;;;;;4.65;2.15;;;14.00;99.90;;;;;;6247777;22;20437;-77
2023/03/18 17:42:41;;;;;;;4.80;1.90;;;13.90;99.90;;;;;;6245486;23;20020;-79
2023/03/18 17:45:16;;;;;;;4.97;1.95;;;13.80;99.90;;;;;;6245345;23;20016;-80
2023/03/18 17:47:42;;;;;;;5.78;2.00;;;13.70;99.90;;;;;;6246837;23;20037;-78
2023/03/18 17:50:17;;;;;;;6.50;2.17;;;13.60;99.90;;;;;;6245225;23;20062;-79
2023/03/18 17:52:48;;;;;;;5.30;2.17;;;13.50;99.90;;;;;;6246992;23;20375;-78
2023/03/18 17:55:19;;;;;;;5.88;3.30;;;13.40;99.90;;;;;;6247212;22;20066;-80
2023/03/18 17:57:45;;;;;;;6.47;2.88;;;13.30;99.90;;;;;;6247291;22;20008;-77
2023/03/18 18:00:23;;;;;;;6.00;3.38;;;13.30;99.90;;;;;;6247015;22;20333;-77
2023/03/18 18:02:50;;;;;;;5.70;2.58;;;13.20;99.90;;;;;;6247177;22;20047;-80
2023/03/18 18:05:20;;;;;;;6.68;2.70;;;13.10;99.90;;;;;;6218312;23;20456;-84
2023/03/18 18:07:47;;;;;;;5.60;2.65;;;13.00;99.90;;;;;;6244326;23;20020;-79
2023/03/18 18:10:15;;;;;;;6.82;3.05;;;13.00;99.90;;;;;;6243534;23;20110;-78
2023/03/18 18:12:45;;;;;;;7.75;3.42;;;12.90;99.90;;;;;;6246236;23;20016;-78
2023/03/18 18:15:18;;;;;;;8.60;3.92;;;12.90;99.90;;;;;;6245348;23;20019;-79